sensor_id;sensor_type;location;lat;lon;timestamp;temperature;humidity
4962;DHT22;2496;52.468;13.342;2023-08-07T00:01:11;15.50;99.90
4962;DHT22;2496;52.468;13.342;2023-08-07T00:03:38;15.40;99.90
4962;DHT22;2496;52.468;13.342;2023-08-07T00:06:06;15.50;99.90
4962;DHT22;2496;52.468;13.342;2023-08-07T00:08:33;15.50;99.90
4962;DHT22;2496;52.468;13.342;2023-08-07T00:11:06;15.50;99.90
4962;DHT22;2496;52.468;13.342;2023-08-07T00:13:34;15.40;99.90
4962;DHT22;2496;52.468;13.342;2023-08-07T00:16:02;15.50;99.90
4962;DHT22;2496;52.468;13.342;2023-08-07T00:18:30;15.50;99.90
4962;DHT22;2496;52.468;13.342;2023-08-07T00:20:57;15.50;99.90
4962;DHT22;2496;52.468;13.342;2023-08-07T00:23:24;15.40;99.90
4962;DHT22;2496;52.468;13.342;2023-08-07T00:25:51;15.40;99.90
4962;DHT22;2496;52.468;13.342;2023-08-07T00:28:18;15.50;99.90
4962;DHT22;2496;52.468;13.342;2023-08-07T00:30:46;15.50;99.90
4962;DHT22;2496;52.468;13.342;2023-08-07T00:33:13;15.40;99.90
4962;DHT22;2496;52.468;13.342;2023-08-07T00:35:40;15.40;99.90
4962;DHT22;2496;52.468;13.342;2023-08-07T00:38:07;15.40;99.90
4962;DHT22;2496;52.468;13.342;2023-08-07T00:40:37;15.40;99.90
4962;DHT22;2496;52.468;13.342;2023-08-07T00:43:05;15.40;99.90
4962;DHT22;2496;52.468;13.342;2023-08-07T00:45:36;15.40;99.90
4962;DHT22;2496;52.468;13.342;2023-08-07T00:48:06;15.40;99.90
4962;DHT22;2496;52.468;13.342;2023-08-07T00:50:33;15.40;99.90
4962;DHT22;2496;52.468;13.342;2023-08-07T00:53:00;15.40;99.90
4962;DHT22;2496;52.468;13.342;2023-08-07T00:55:28;15.40;99.90
4962;DHT22;2496;52.468;13.342;2023-08-07T00:57:57;15.40;99.90
4962;DHT22;2496;52.468;13.342;2023-08-07T01:00:25;15.40;99.90
4962;DHT22;2496;52.468;13.342;2023-08-07T01:02:54;15.40;99.90
4962;DHT22;2496;52.468;13.342;2023-08-07T01:05:25;15.40;99.90
4962;DHT22;2496;52.468;13.342;2023-08-07T01:07:53;15.40;99.90
4962;DHT22;2496;52.468;13.342;2023-08-07T01:10:29;15.40;99.90
4962;DHT22;2496;52.468;13.342;2023-08-07T01:13:03;15.40;99.90
4962;DHT22;2496;52.468;13.342;2023-08-07T01:15:33;15.40;99.90
4962;DHT22;2496;52.468;13.342;2023-08-07T01:18:02;15.40;99.90
4962;DHT22;2496;52.468;13.342;2023-08-07T01:20:31;15.40;99.90
4962;DHT22;2496;52.468;13.342;2023-08-07T01:23:00;15.40;99.90
4962;DHT22;2496;52.468;13.342;2023-08-07T01:25:27;15.40;99.90
4962;DHT22;2496;52.468;13.342;2023-08-07T01:28:00;15.40;99.90
4962;DHT22;2496;52.468;13.342;2023-08-07T01:30:33;15.30;99.90
4962;DHT22;2496;52.468;13.342;2023-08-07T01:33:09;15.30;99.90
4962;DHT22;2496;52.468;13.342;2023-08-07T01:35:41;15.40;99.90
4962;DHT22;2496;52.468;13.342;2023-08-07T01:38:11;15.40;99.90
4962;DHT22;2496;52.468;13.342;2023-08-07T01:40:39;15.40;99.90
4962;DHT22;2496;52.468;13.342;2023-08-07T01:43:07;15.30;99.90
4962;DHT22;2496;52.468;13.342;2023-08-07T01:45:34;15.40;99.90
4962;DHT22;2496;52.468;13.342;2023-08-07T01:48:01;15.30;99.90
4962;DHT22;2496;52.468;13.342;2023-08-07T01:50:29;15.30;99.90
4962;DHT22;2496;52.468;13.342;2023-08-07T01:52:56;15.30;99.90
4962;DHT22;2496;52.468;13.342;2023-08-07T01:55:24;15.20;99.90
4962;DHT22;2496;52.468;13.342;2023-08-07T01:57:51;15.20;99.90
4962;DHT22;2496;52.468;13.342;2023-08-07T02:00:19;15.20;99.90
4962;DHT22;2496;52.468;13.342;2023-08-07T02:02:46;15.20;99.90
4962;DHT22;2496;52.468;13.342;2023-08-07T02:05:14;15.20;99.90
4962;DHT22;2496;52.468;13.342;2023-08-07T02:07:41;15.20;99.90
4962;DHT22;2496;52.468;13.342;2023-08-07T02:10:09;15.20;99.90
4962;DHT22;2496;52.468;13.342;2023-08-07T02:12:37;15.20;99.90
4962;DHT22;2496;52.468;13.342;2023-08-07T02:15:05;15.20;99.90
4962;DHT22;2496;52.468;13.342;2023-08-07T02:17:32;15.20;99.90
4962;DHT22;2496;52.468;13.342;2023-08-07T02:20:01;15.20;99.90
4962;DHT22;2496;52.468;13.342;2023-08-07T02:22:28;15.20;99.90
4962;DHT22;2496;52.468;13.342;2023-08-07T02:24:55;15.20;99.90
4962;DHT22;2496;52.468;13.342;2023-08-07T02:27:22;15.20;99.90
4962;DHT22;2496;52.468;13.342;2023-08-07T02:29:50;15.20;99.90
4962;DHT22;2496;52.468;13.342;2023-08-07T02:32:17;15.20;99.90
4962;DHT22;2496;52.468;13.342;2023-08-07T02:34:44;15.20;99.90
4962;DHT22;2496;52.468;13.342;2023-08-07T02:37:11;15.20;99.90
4962;DHT22;2496;52.468;13.342;2023-08-07T02:39:38;15.20;99.90
4962;DHT22;2496;52.468;13.342;2023-08-07T02:42:06;15.20;99.90
4962;DHT22;2496;52.468;13.342;2023-08-07T02:44:33;15.20;99.90
4962;DHT22;2496;52.468;13.342;2023-08-07T02:47:01;15.20;99.90
4962;DHT22;2496;52.468;13.342;2023-08-07T02:49:28;15.20;99.90
4962;DHT22;2496;52.468;13.342;2023-08-07T02:51:55;15.20;99.90
4962;DHT22;2496;52.468;13.342;2023-08-07T02:54:22;15.20;99.90
4962;DHT22;2496;52.468;13.342;2023-08-07T02:56:49;15.30;99.90
4962;DHT22;2496;52.468;13.342;2023-08-07T02:59:16;15.30;99.90
4962;DHT22;2496;52.468;13.342;2023-08-07T03:01:43;15.30;99.90
4962;DHT22;2496;52.468;13.342;2023-08-07T03:04:11;15.30;99.90
4962;DHT22;2496;52.468;13.342;2023-08-07T03:06:38;15.20;99.90
4962;DHT22;2496;52.468;13.342;2023-08-07T03:09:05;15.30;99.90
4962;DHT22;2496;52.468;13.342;2023-08-07T03:11:32;15.20;99.90
4962;DHT22;2496;52.468;13.342;2023-08-07T03:13:59;15.20;99.90
4962;DHT22;2496;52.468;13.342;2023-08-07T03:16:26;15.30;99.90
4962;DHT22;2496;52.468;13.342;2023-08-07T03:18:53;15.30;99.90
4962;DHT22;2496;52.468;13.342;2023-08-07T03:21:21;15.30;99.90
4962;DHT22;2496;52.468;13.342;2023-08-07T03:23:48;15.30;99.90
4962;DHT22;2496;52.468;13.342;2023-08-07T03:26:15;15.30;99.90
4962;DHT22;2496;52.468;13.342;2023-08-07T03:28:42;15.20;99.90
4962;DHT22;2496;52.468;13.342;2023-08-07T03:31:11;15.30;99.90
4962;DHT22;2496;52.468;13.342;2023-08-07T03:33:38;15.30;99.90
4962;DHT22;2496;52.468;13.342;2023-08-07T03:36:05;15.30;99.90
4962;DHT22;2496;52.468;13.342;2023-08-07T03:38:33;15.30;99.90
4962;DHT22;2496;52.468;13.342;2023-08-07T03:41:00;15.30;99.90
4962;DHT22;2496;52.468;13.342;2023-08-07T03:43:27;15.30;99.90
4962;DHT22;2496;52.468;13.342;2023-08-07T03:45:55;15.30;99.90
4962;DHT22;2496;52.468;13.342;2023-08-07T03:48:22;15.30;99.90
4962;DHT22;2496;52.468;13.342;2023-08-07T03:50:49;15.30;99.90
4962;DHT22;2496;52.468;13.342;2023-08-07T03:53:16;15.30;99.90
4962;DHT22;2496;52.468;13.342;2023-08-07T03:55:49;15.30;99.90
4962;DHT22;2496;52.468;13.342;2023-08-07T03:58:16;15.30;99.90
4962;DHT22;2496;52.468;13.342;2023-08-07T04:00:43;15.30;99.90
4962;DHT22;2496;52.468;13.342;2023-08-07T04:03:10;15.30;99.90
4962;DHT22;2496;52.468;13.342;2023-08-07T04:05:37;15.30;99.90
4962;DHT22;2496;52.468;13.342;2023-08-07T04:08:04;15.30;99.90
4962;DHT22;2496;52.468;13.342;2023-08-07T04:10:31;15.20;99.90
4962;DHT22;2496;52.468;13.342;2023-08-07T04:12:59;15.30;99.90
4962;DHT22;2496;52.468;13.342;2023-08-07T04:15:27;15.20;99.90
4962;DHT22;2496;52.468;13.342;2023-08-07T04:17:53;15.30;99.90
4962;DHT22;2496;52.468;13.342;2023-08-07T04:20:20;15.30;99.90
4962;DHT22;2496;52.468;13.342;2023-08-07T04:22:48;15.30;99.90
4962;DHT22;2496;52.468;13.342;2023-08-07T04:25:15;15.30;99.90
4962;DHT22;2496;52.468;13.342;2023-08-07T04:27:42;15.40;99.90
4962;DHT22;2496;52.468;13.342;2023-08-07T04:30:11;15.40;99.90
4962;DHT22;2496;52.468;13.342;2023-08-07T04:32:38;15.40;99.90
4962;DHT22;2496;52.468;13.342;2023-08-07T04:35:07;15.40;99.90
4962;DHT22;2496;52.468;13.342;2023-08-07T04:37:34;15.40;99.90
4962;DHT22;2496;52.468;13.342;2023-08-07T04:40:03;15.40;99.90
4962;DHT22;2496;52.468;13.342;2023-08-07T04:42:32;15.50;99.90
4962;DHT22;2496;52.468;13.342;2023-08-07T04:44:59;15.50;99.90
4962;DHT22;2496;52.468;13.342;2023-08-07T04:47:28;15.50;99.90
4962;DHT22;2496;52.468;13.342;2023-08-07T04:49:56;15.50;99.90
4962;DHT22;2496;52.468;13.342;2023-08-07T04:52:23;15.50;99.90
4962;DHT22;2496;52.468;13.342;2023-08-07T04:54:50;15.50;99.90
4962;DHT22;2496;52.468;13.342;2023-08-07T04:57:17;15.60;99.90
4962;DHT22;2496;52.468;13.342;2023-08-07T04:59:43;15.50;99.90
4962;DHT22;2496;52.468;13.342;2023-08-07T05:02:10;15.60;99.90
4962;DHT22;2496;52.468;13.342;2023-08-07T05:04:39;15.60;99.90
4962;DHT22;2496;52.468;13.342;2023-08-07T05:07:06;15.50;99.90
4962;DHT22;2496;52.468;13.342;2023-08-07T05:09:32;15.50;99.90
4962;DHT22;2496;52.468;13.342;2023-08-07T05:11:59;15.50;99.90
4962;DHT22;2496;52.468;13.342;2023-08-07T05:14:26;15.60;99.90
4962;DHT22;2496;52.468;13.342;2023-08-07T05:16:52;15.60;99.90
4962;DHT22;2496;52.468;13.342;2023-08-07T05:19:19;15.60;99.90
4962;DHT22;2496;52.468;13.342;2023-08-07T05:21:48;15.60;99.90
4962;DHT22;2496;52.468;13.342;2023-08-07T05:24:16;15.50;99.90
4962;DHT22;2496;52.468;13.342;2023-08-07T05:26:44;15.50;99.90
4962;DHT22;2496;52.468;13.342;2023-08-07T05:29:11;15.50;99.90
4962;DHT22;2496;52.468;13.342;2023-08-07T05:31:38;15.50;99.90
4962;DHT22;2496;52.468;13.342;2023-08-07T05:34:05;15.50;99.90
4962;DHT22;2496;52.468;13.342;2023-08-07T05:36:33;15.50;99.90
4962;DHT22;2496;52.468;13.342;2023-08-07T05:39:01;15.60;99.90
4962;DHT22;2496;52.468;13.342;2023-08-07T05:41:29;15.60;99.90
4962;DHT22;2496;52.468;13.342;2023-08-07T05:43:56;15.60;99.90
4962;DHT22;2496;52.468;13.342;2023-08-07T05:46:23;15.70;99.90
4962;DHT22;2496;52.468;13.342;2023-08-07T05:48:50;15.70;99.90
4962;DHT22;2496;52.468;13.342;2023-08-07T05:51:17;15.80;99.90
4962;DHT22;2496;52.468;13.342;2023-08-07T05:53:45;15.90;99.90
4962;DHT22;2496;52.468;13.342;2023-08-07T05:56:13;16.00;99.90
4962;DHT22;2496;52.468;13.342;2023-08-07T05:58:40;16.10;99.90
4962;DHT22;2496;52.468;13.342;2023-08-07T06:01:07;16.10;99.90
4962;DHT22;2496;52.468;13.342;2023-08-07T06:03:34;16.20;99.90
4962;DHT22;2496;52.468;13.342;2023-08-07T06:06:01;16.30;99.90
4962;DHT22;2496;52.468;13.342;2023-08-07T06:08:28;16.40;99.90
4962;DHT22;2496;52.468;13.342;2023-08-07T06:10:55;16.60;99.90
4962;DHT22;2496;52.468;13.342;2023-08-07T06:13:24;16.70;99.90
4962;DHT22;2496;52.468;13.342;2023-08-07T06:15:51;16.80;99.90
4962;DHT22;2496;52.468;13.342;2023-08-07T06:18:18;16.90;99.90
4962;DHT22;2496;52.468;13.342;2023-08-07T06:20:45;16.90;99.90
4962;DHT22;2496;52.468;13.342;2023-08-07T06:23:12;16.90;99.90
4962;DHT22;2496;52.468;13.342;2023-08-07T06:25:39;16.80;99.90
4962;DHT22;2496;52.468;13.342;2023-08-07T06:28:06;16.80;99.90
4962;DHT22;2496;52.468;13.342;2023-08-07T06:30:34;16.80;99.90
4962;DHT22;2496;52.468;13.342;2023-08-07T06:33:01;16.80;99.90
4962;DHT22;2496;52.468;13.342;2023-08-07T06:35:28;16.80;99.90
4962;DHT22;2496;52.468;13.342;2023-08-07T06:37:55;16.80;99.90
4962;DHT22;2496;52.468;13.342;2023-08-07T06:40:22;16.80;99.90
4962;DHT22;2496;52.468;13.342;2023-08-07T06:42:49;16.90;99.90
4962;DHT22;2496;52.468;13.342;2023-08-07T06:45:16;16.90;99.90
4962;DHT22;2496;52.468;13.342;2023-08-07T06:47:44;17.00;99.90
4962;DHT22;2496;52.468;13.342;2023-08-07T06:50:13;17.10;99.90
4962;DHT22;2496;52.468;13.342;2023-08-07T06:52:40;17.20;99.90
4962;DHT22;2496;52.468;13.342;2023-08-07T06:55:07;17.30;99.90
4962;DHT22;2496;52.468;13.342;2023-08-07T06:57:34;17.40;99.90
4962;DHT22;2496;52.468;13.342;2023-08-07T07:00:01;17.50;99.90
4962;DHT22;2496;52.468;13.342;2023-08-07T07:02:28;17.60;99.90
4962;DHT22;2496;52.468;13.342;2023-08-07T07:04:57;17.70;99.90
4962;DHT22;2496;52.468;13.342;2023-08-07T07:07:24;17.80;99.90
4962;DHT22;2496;52.468;13.342;2023-08-07T07:09:51;17.80;99.90
4962;DHT22;2496;52.468;13.342;2023-08-07T07:12:21;17.90;99.90
4962;DHT22;2496;52.468;13.342;2023-08-07T07:14:49;17.90;99.90
4962;DHT22;2496;52.468;13.342;2023-08-07T07:17:16;18.00;99.90
4962;DHT22;2496;52.468;13.342;2023-08-07T07:19:43;18.00;99.90
4962;DHT22;2496;52.468;13.342;2023-08-07T07:22:11;18.10;99.90
4962;DHT22;2496;52.468;13.342;2023-08-07T07:24:38;18.10;99.90
4962;DHT22;2496;52.468;13.342;2023-08-07T07:27:06;18.20;99.90
4962;DHT22;2496;52.468;13.342;2023-08-07T07:29:33;18.20;99.90
4962;DHT22;2496;52.468;13.342;2023-08-07T07:32:00;18.20;99.90
4962;DHT22;2496;52.468;13.342;2023-08-07T07:34:27;18.30;99.90
4962;DHT22;2496;52.468;13.342;2023-08-07T07:36:54;18.30;99.90
4962;DHT22;2496;52.468;13.342;2023-08-07T07:39:22;18.30;99.90
4962;DHT22;2496;52.468;13.342;2023-08-07T07:41:49;18.30;99.90
4962;DHT22;2496;52.468;13.342;2023-08-07T07:44:16;18.30;99.90
4962;DHT22;2496;52.468;13.342;2023-08-07T07:46:43;18.30;99.90
4962;DHT22;2496;52.468;13.342;2023-08-07T07:49:10;18.30;99.90
4962;DHT22;2496;52.468;13.342;2023-08-07T07:51:38;18.40;99.90
4962;DHT22;2496;52.468;13.342;2023-08-07T07:54:06;18.40;99.90
4962;DHT22;2496;52.468;13.342;2023-08-07T07:56:35;18.40;99.90
4962;DHT22;2496;52.468;13.342;2023-08-07T07:59:03;18.50;99.90
4962;DHT22;2496;52.468;13.342;2023-08-07T08:01:30;18.50;99.90
4962;DHT22;2496;52.468;13.342;2023-08-07T08:03:57;18.60;99.90
4962;DHT22;2496;52.468;13.342;2023-08-07T08:06:24;18.60;99.90
4962;DHT22;2496;52.468;13.342;2023-08-07T08:08:52;18.70;99.90
4962;DHT22;2496;52.468;13.342;2023-08-07T08:11:19;18.80;99.90
4962;DHT22;2496;52.468;13.342;2023-08-07T08:13:48;18.90;99.90
4962;DHT22;2496;52.468;13.342;2023-08-07T08:16:15;18.90;99.90
4962;DHT22;2496;52.468;13.342;2023-08-07T08:18:43;18.90;99.90
4962;DHT22;2496;52.468;13.342;2023-08-07T08:21:09;18.90;99.90
4962;DHT22;2496;52.468;13.342;2023-08-07T08:23:36;18.80;99.90
4962;DHT22;2496;52.468;13.342;2023-08-07T08:26:03;18.90;99.90
4962;DHT22;2496;52.468;13.342;2023-08-07T08:28:31;18.80;99.90
4962;DHT22;2496;52.468;13.342;2023-08-07T08:30:59;18.70;99.90
4962;DHT22;2496;52.468;13.342;2023-08-07T08:33:29;18.60;99.90
4962;DHT22;2496;52.468;13.342;2023-08-07T08:35:56;18.60;99.90
4962;DHT22;2496;52.468;13.342;2023-08-07T08:38:23;18.60;99.90
4962;DHT22;2496;52.468;13.342;2023-08-07T08:40:52;18.70;99.90
4962;DHT22;2496;52.468;13.342;2023-08-07T08:43:19;18.90;99.90
4962;DHT22;2496;52.468;13.342;2023-08-07T08:45:47;19.00;99.90
4962;DHT22;2496;52.468;13.342;2023-08-07T08:48:19;19.00;99.90
4962;DHT22;2496;52.468;13.342;2023-08-07T08:50:48;19.10;99.90
4962;DHT22;2496;52.468;13.342;2023-08-07T08:53:16;19.10;99.90
4962;DHT22;2496;52.468;13.342;2023-08-07T08:55:44;19.10;99.90
4962;DHT22;2496;52.468;13.342;2023-08-07T08:58:13;19.10;99.90
4962;DHT22;2496;52.468;13.342;2023-08-07T09:00:41;19.00;99.90
4962;DHT22;2496;52.468;13.342;2023-08-07T09:03:09;19.00;99.90
4962;DHT22;2496;52.468;13.342;2023-08-07T09:05:39;19.00;99.90
4962;DHT22;2496;52.468;13.342;2023-08-07T09:08:06;19.10;99.90
4962;DHT22;2496;52.468;13.342;2023-08-07T09:10:34;19.30;99.90
4962;DHT22;2496;52.468;13.342;2023-08-07T09:13:03;19.50;99.90
4962;DHT22;2496;52.468;13.342;2023-08-07T09:15:33;19.50;99.90
4962;DHT22;2496;52.468;13.342;2023-08-07T09:18:00;19.50;99.90
4962;DHT22;2496;52.468;13.342;2023-08-07T09:20:29;19.30;99.90
4962;DHT22;2496;52.468;13.342;2023-08-07T09:22:58;19.10;99.90
4962;DHT22;2496;52.468;13.342;2023-08-07T09:25:28;18.90;99.90
4962;DHT22;2496;52.468;13.342;2023-08-07T09:27:56;18.70;99.90
4962;DHT22;2496;52.468;13.342;2023-08-07T09:30:27;18.70;99.90
4962;DHT22;2496;52.468;13.342;2023-08-07T09:32:56;18.70;99.90
4962;DHT22;2496;52.468;13.342;2023-08-07T09:35:24;18.70;99.90
4962;DHT22;2496;52.468;13.342;2023-08-07T09:37:51;18.70;99.90
4962;DHT22;2496;52.468;13.342;2023-08-07T09:40:20;18.80;99.90
4962;DHT22;2496;52.468;13.342;2023-08-07T09:42:50;18.80;99.90
4962;DHT22;2496;52.468;13.342;2023-08-07T09:45:19;18.80;99.90
4962;DHT22;2496;52.468;13.342;2023-08-07T09:47:47;18.80;99.90
4962;DHT22;2496;52.468;13.342;2023-08-07T09:50:23;18.90;99.90
4962;DHT22;2496;52.468;13.342;2023-08-07T09:52:50;18.80;99.90
4962;DHT22;2496;52.468;13.342;2023-08-07T09:55:19;18.80;99.90
4962;DHT22;2496;52.468;13.342;2023-08-07T09:57:46;18.80;99.90
4962;DHT22;2496;52.468;13.342;2023-08-07T10:00:13;18.90;99.90
4962;DHT22;2496;52.468;13.342;2023-08-07T10:02:41;19.00;99.90
4962;DHT22;2496;52.468;13.342;2023-08-07T10:05:10;19.00;99.90
4962;DHT22;2496;52.468;13.342;2023-08-07T10:07:38;19.00;99.90
4962;DHT22;2496;52.468;13.342;2023-08-07T10:10:06;19.00;99.90
4962;DHT22;2496;52.468;13.342;2023-08-07T10:12:36;19.10;99.90
4962;DHT22;2496;52.468;13.342;2023-08-07T10:15:04;19.20;99.90
4962;DHT22;2496;52.468;13.342;2023-08-07T10:17:32;19.20;99.90
4962;DHT22;2496;52.468;13.342;2023-08-07T10:19:59;19.20;99.90
4962;DHT22;2496;52.468;13.342;2023-08-07T10:22:29;19.30;99.90
4962;DHT22;2496;52.468;13.342;2023-08-07T10:24:58;19.30;99.90
4962;DHT22;2496;52.468;13.342;2023-08-07T10:27:26;19.30;99.90
4962;DHT22;2496;52.468;13.342;2023-08-07T10:29:57;19.30;99.90
4962;DHT22;2496;52.468;13.342;2023-08-07T10:32:26;19.40;99.90
4962;DHT22;2496;52.468;13.342;2023-08-07T10:34:54;19.30;99.90
4962;DHT22;2496;52.468;13.342;2023-08-07T10:37:38;19.30;99.90
4962;DHT22;2496;52.468;13.342;2023-08-07T10:40:07;19.30;99.90
4962;DHT22;2496;52.468;13.342;2023-08-07T10:42:51;19.30;99.90
4962;DHT22;2496;52.468;13.342;2023-08-07T10:45:20;19.30;99.90
4962;DHT22;2496;52.468;13.342;2023-08-07T10:47:57;19.20;99.90
4962;DHT22;2496;52.468;13.342;2023-08-07T10:50:29;19.20;99.90
4962;DHT22;2496;52.468;13.342;2023-08-07T10:52:56;19.20;99.90
4962;DHT22;2496;52.468;13.342;2023-08-07T10:55:23;19.20;99.90
4962;DHT22;2496;52.468;13.342;2023-08-07T10:57:50;19.10;99.90
4962;DHT22;2496;52.468;13.342;2023-08-07T11:00:25;19.10;99.90
4962;DHT22;2496;52.468;13.342;2023-08-07T11:02:52;19.20;99.90
4962;DHT22;2496;52.468;13.342;2023-08-07T11:05:19;19.20;99.90
4962;DHT22;2496;52.468;13.342;2023-08-07T11:07:47;19.20;99.90
4962;DHT22;2496;52.468;13.342;2023-08-07T11:10:17;19.10;99.90
4962;DHT22;2496;52.468;13.342;2023-08-07T11:12:44;19.00;99.90
4962;DHT22;2496;52.468;13.342;2023-08-07T11:15:14;19.00;99.90
4962;DHT22;2496;52.468;13.342;2023-08-07T11:17:42;19.00;99.90
4962;DHT22;2496;52.468;13.342;2023-08-07T11:20:12;19.00;99.90
4962;DHT22;2496;52.468;13.342;2023-08-07T11:22:39;19.10;99.90
4962;DHT22;2496;52.468;13.342;2023-08-07T11:25:07;19.10;99.90
4962;DHT22;2496;52.468;13.342;2023-08-07T11:27:39;19.20;99.90
4962;DHT22;2496;52.468;13.342;2023-08-07T11:30:11;19.20;99.90
4962;DHT22;2496;52.468;13.342;2023-08-07T11:32:38;19.20;99.90
4962;DHT22;2496;52.468;13.342;2023-08-07T11:35:08;19.20;99.90
4962;DHT22;2496;52.468;13.342;2023-08-07T11:37:44;19.20;99.90
4962;DHT22;2496;52.468;13.342;2023-08-07T11:40:12;19.00;99.90
4962;DHT22;2496;52.468;13.342;2023-08-07T11:42:39;19.00;99.90
4962;DHT22;2496;52.468;13.342;2023-08-07T11:45:08;18.90;99.90
4962;DHT22;2496;52.468;13.342;2023-08-07T11:47:35;18.90;99.90
4962;DHT22;2496;52.468;13.342;2023-08-07T11:50:02;18.80;99.90
4962;DHT22;2496;52.468;13.342;2023-08-07T11:52:31;18.90;99.90
4962;DHT22;2496;52.468;13.342;2023-08-07T11:54:58;19.00;99.90
4962;DHT22;2496;52.468;13.342;2023-08-07T11:57:25;19.10;99.90
4962;DHT22;2496;52.468;13.342;2023-08-07T11:59:52;19.30;99.90
4962;DHT22;2496;52.468;13.342;2023-08-07T12:02:23;19.40;99.90
4962;DHT22;2496;52.468;13.342;2023-08-07T12:04:51;19.50;99.90
4962;DHT22;2496;52.468;13.342;2023-08-07T12:07:24;19.50;99.90
4962;DHT22;2496;52.468;13.342;2023-08-07T12:09:53;19.50;99.90
4962;DHT22;2496;52.468;13.342;2023-08-07T12:12:21;19.50;99.90
4962;DHT22;2496;52.468;13.342;2023-08-07T12:14:52;19.60;99.90
4962;DHT22;2496;52.468;13.342;2023-08-07T12:17:21;19.70;99.90
4962;DHT22;2496;52.468;13.342;2023-08-07T12:19:50;19.80;99.90
4962;DHT22;2496;52.468;13.342;2023-08-07T12:22:19;19.80;99.90
4962;DHT22;2496;52.468;13.342;2023-08-07T12:24:46;19.80;99.90
4962;DHT22;2496;52.468;13.342;2023-08-07T12:27:14;19.80;99.90
4962;DHT22;2496;52.468;13.342;2023-08-07T12:29:41;19.80;99.90
4962;DHT22;2496;52.468;13.342;2023-08-07T12:32:08;19.70;99.90
4962;DHT22;2496;52.468;13.342;2023-08-07T12:34:36;19.60;99.90
4962;DHT22;2496;52.468;13.342;2023-08-07T12:37:04;19.50;99.90
4962;DHT22;2496;52.468;13.342;2023-08-07T12:39:31;19.40;99.90
4962;DHT22;2496;52.468;13.342;2023-08-07T12:41:58;19.30;99.90
4962;DHT22;2496;52.468;13.342;2023-08-07T12:44:26;19.30;99.90
4962;DHT22;2496;52.468;13.342;2023-08-07T12:46:53;19.30;99.90
4962;DHT22;2496;52.468;13.342;2023-08-07T12:49:20;19.40;99.90
4962;DHT22;2496;52.468;13.342;2023-08-07T12:51:47;19.50;99.90
4962;DHT22;2496;52.468;13.342;2023-08-07T12:54:14;19.50;99.90
4962;DHT22;2496;52.468;13.342;2023-08-07T12:56:41;19.50;99.90
4962;DHT22;2496;52.468;13.342;2023-08-07T12:59:08;19.40;99.90
4962;DHT22;2496;52.468;13.342;2023-08-07T13:01:36;19.30;99.90
4962;DHT22;2496;52.468;13.342;2023-08-07T13:04:03;19.20;99.90
4962;DHT22;2496;52.468;13.342;2023-08-07T13:06:31;19.00;99.90
4962;DHT22;2496;52.468;13.342;2023-08-07T13:08:58;18.90;99.90
4962;DHT22;2496;52.468;13.342;2023-08-07T13:11:27;18.70;99.90
4962;DHT22;2496;52.468;13.342;2023-08-07T13:13:54;18.70;99.90
4962;DHT22;2496;52.468;13.342;2023-08-07T13:16:20;18.80;99.90
4962;DHT22;2496;52.468;13.342;2023-08-07T13:18:49;18.80;99.90
4962;DHT22;2496;52.468;13.342;2023-08-07T13:21:16;18.90;99.90
4962;DHT22;2496;52.468;13.342;2023-08-07T13:23:43;18.90;99.90
4962;DHT22;2496;52.468;13.342;2023-08-07T13:26:10;19.00;99.90
4962;DHT22;2496;52.468;13.342;2023-08-07T13:28:37;19.00;99.90
4962;DHT22;2496;52.468;13.342;2023-08-07T13:31:03;19.00;99.90
4962;DHT22;2496;52.468;13.342;2023-08-07T13:33:30;19.00;99.90
4962;DHT22;2496;52.468;13.342;2023-08-07T13:35:59;19.10;99.90
4962;DHT22;2496;52.468;13.342;2023-08-07T13:38:26;19.20;99.90
4962;DHT22;2496;52.468;13.342;2023-08-07T13:40:53;19.30;99.90
4962;DHT22;2496;52.468;13.342;2023-08-07T13:43:20;19.30;99.90
4962;DHT22;2496;52.468;13.342;2023-08-07T13:45:47;19.30;99.90
4962;DHT22;2496;52.468;13.342;2023-08-07T13:48:16;19.40;99.90
4962;DHT22;2496;52.468;13.342;2023-08-07T13:50:42;19.40;99.90
4962;DHT22;2496;52.468;13.342;2023-08-07T13:53:11;19.50;99.90
4962;DHT22;2496;52.468;13.342;2023-08-07T13:55:38;19.50;99.90
4962;DHT22;2496;52.468;13.342;2023-08-07T13:58:05;19.60;99.90
4962;DHT22;2496;52.468;13.342;2023-08-07T14:00:32;19.60;99.90
4962;DHT22;2496;52.468;13.342;2023-08-07T14:03:00;19.70;99.90
4962;DHT22;2496;52.468;13.342;2023-08-07T14:05:27;19.70;99.90
4962;DHT22;2496;52.468;13.342;2023-08-07T14:07:54;19.70;99.90
4962;DHT22;2496;52.468;13.342;2023-08-07T14:10:24;19.70;99.90
4962;DHT22;2496;52.468;13.342;2023-08-07T14:12:51;19.70;99.90
4962;DHT22;2496;52.468;13.342;2023-08-07T14:15:18;19.70;99.90
4962;DHT22;2496;52.468;13.342;2023-08-07T14:17:45;19.60;99.90
4962;DHT22;2496;52.468;13.342;2023-08-07T14:20:12;19.50;99.90
4962;DHT22;2496;52.468;13.342;2023-08-07T14:22:39;19.40;99.90
4962;DHT22;2496;52.468;13.342;2023-08-07T14:25:07;19.30;99.90
4962;DHT22;2496;52.468;13.342;2023-08-07T14:27:35;19.30;99.90
4962;DHT22;2496;52.468;13.342;2023-08-07T14:30:03;19.30;99.90
4962;DHT22;2496;52.468;13.342;2023-08-07T14:32:30;19.20;99.90
4962;DHT22;2496;52.468;13.342;2023-08-07T14:34:57;19.20;99.90
4962;DHT22;2496;52.468;13.342;2023-08-07T14:37:23;19.10;99.90
4962;DHT22;2496;52.468;13.342;2023-08-07T14:39:51;19.00;99.90
4962;DHT22;2496;52.468;13.342;2023-08-07T14:42:18;19.10;99.90
4962;DHT22;2496;52.468;13.342;2023-08-07T14:44:46;19.00;99.90
4962;DHT22;2496;52.468;13.342;2023-08-07T14:47:13;19.10;99.90
4962;DHT22;2496;52.468;13.342;2023-08-07T14:49:40;19.10;99.90
4962;DHT22;2496;52.468;13.342;2023-08-07T14:52:07;19.20;99.90
4962;DHT22;2496;52.468;13.342;2023-08-07T14:54:34;19.20;99.90
4962;DHT22;2496;52.468;13.342;2023-08-07T14:57:01;19.20;99.90
4962;DHT22;2496;52.468;13.342;2023-08-07T14:59:28;19.20;99.90
4962;DHT22;2496;52.468;13.342;2023-08-07T15:01:56;19.20;99.90
4962;DHT22;2496;52.468;13.342;2023-08-07T15:04:23;19.10;99.90
4962;DHT22;2496;52.468;13.342;2023-08-07T15:06:50;19.10;99.90
4962;DHT22;2496;52.468;13.342;2023-08-07T15:09:18;19.10;99.90
4962;DHT22;2496;52.468;13.342;2023-08-07T15:11:45;19.10;99.90
4962;DHT22;2496;52.468;13.342;2023-08-07T15:14:13;19.10;99.90
4962;DHT22;2496;52.468;13.342;2023-08-07T15:16:40;19.10;99.90
4962;DHT22;2496;52.468;13.342;2023-08-07T15:19:09;19.10;99.90
4962;DHT22;2496;52.468;13.342;2023-08-07T15:21:36;19.10;99.90
4962;DHT22;2496;52.468;13.342;2023-08-07T15:24:03;19.10;99.90
4962;DHT22;2496;52.468;13.342;2023-08-07T15:26:31;19.10;99.90
4962;DHT22;2496;52.468;13.342;2023-08-07T15:28:58;19.20;99.90
4962;DHT22;2496;52.468;13.342;2023-08-07T15:31:24;19.10;99.90
4962;DHT22;2496;52.468;13.342;2023-08-07T15:33:51;19.10;99.90
4962;DHT22;2496;52.468;13.342;2023-08-07T15:36:20;19.10;99.90
4962;DHT22;2496;52.468;13.342;2023-08-07T15:38:47;19.10;99.90
4962;DHT22;2496;52.468;13.342;2023-08-07T15:41:14;19.10;99.90
4962;DHT22;2496;52.468;13.342;2023-08-07T15:43:41;19.30;99.90
4962;DHT22;2496;52.468;13.342;2023-08-07T15:46:08;19.30;99.90
4962;DHT22;2496;52.468;13.342;2023-08-07T15:48:35;19.40;99.90